Arab, Missouri
Current Conditions -  °F | °C
As of 5:53 PM on Wednesday 28 Jan 2015 (Local Time) from KPOF Reporting Station
Clear Clear  
Wind Chill: 41°   Ceiling: Unl
Heat Index: 45°   Visibility: 10mi
Dew Point: 35°   Wind: 8mph
Humidity: 68%   Direction: 150°SSE
Pressure: 30.05"   Gusts: NA
Location:  37.1241°N, 90.0834°W
Report Text: KPOF 282353Z AUTO 15007KT 10SM CLR 07/02 A3005 RMK AO2 SLP179 T00720017 10100 20056 58029
Loading
Personal Weather Stations






























Interactive Weather Map New forecast layout! Learn more

10-Day Weather Forecast

Advertisements
Track Severe Weather on mobile